sensor_id;sensor_type;location;lat;lon;timestamp;P1;durP1;ratioP1;P2;durP2;ratioP2
80123;SDS011;69433;48.642;9.142;2023-04-25T17:47:38;75.60;;;48.47;;
80123;SDS011;69433;48.642;9.142;2023-04-25T17:50:05;75.63;;;49.33;;
80123;SDS011;69433;48.642;9.142;2023-04-25T17:52:31;71.45;;;47.45;;
80123;SDS011;69433;48.642;9.142;2023-04-25T17:54:58;70.47;;;47.03;;
80123;SDS011;69433;48.642;9.142;2023-04-25T17:57:24;66.25;;;45.58;;
80123;SDS011;69433;48.642;9.142;2023-04-25T17:59:50;70.63;;;47.15;;
80123;SDS011;69433;48.642;9.142;2023-04-25T18:02:16;63.92;;;43.03;;
80123;SDS011;69433;48.642;9.142;2023-04-25T18:04:44;69.13;;;45.75;;
80123;SDS011;69433;48.642;9.142;2023-04-25T18:07:10;62.67;;;43.05;;
80123;SDS011;69433;48.642;9.142;2023-04-25T18:09:37;64.07;;;43.58;;
80123;SDS011;69433;48.642;9.142;2023-04-25T18:12:09;60.80;;;42.63;;
80123;SDS011;69433;48.642;9.142;2023-04-25T18:14:35;60.30;;;41.97;;
80123;SDS011;69433;48.642;9.142;2023-04-25T18:17:08;56.80;;;40.72;;
80123;SDS011;69433;48.642;9.142;2023-04-25T18:19:36;58.38;;;41.17;;
80123;SDS011;69433;48.642;9.142;2023-04-25T18:22:01;62.72;;;42.28;;
80123;SDS011;69433;48.642;9.142;2023-04-25T18:24:27;56.00;;;38.85;;
80123;SDS011;69433;48.642;9.142;2023-04-25T18:26:52;54.20;;;38.03;;
80123;SDS011;69433;48.642;9.142;2023-04-25T18:29:27;53.97;;;38.85;;
80123;SDS011;69433;48.642;9.142;2023-04-25T18:31:52;53.58;;;37.42;;
80123;SDS011;69433;48.642;9.142;2023-04-25T18:34:18;53.45;;;38.10;;
80123;SDS011;69433;48.642;9.142;2023-04-25T18:36:51;53.38;;;36.53;;
80123;SDS011;69433;48.642;9.142;2023-04-25T18:39:19;51.60;;;36.78;;
80123;SDS011;69433;48.642;9.142;2023-04-25T18:41:45;50.47;;;36.20;;
80123;SDS011;69433;48.642;9.142;2023-04-25T18:44:10;49.28;;;34.95;;
80123;SDS011;69433;48.642;9.142;2023-04-25T18:46:36;51.17;;;35.80;;
80123;SDS011;69433;48.642;9.142;2023-04-25T18:49:01;49.55;;;35.00;;
80123;SDS011;69433;48.642;9.142;2023-04-25T18:51:28;48.55;;;34.17;;
80123;SDS011;69433;48.642;9.142;2023-04-25T18:53:55;47.10;;;33.30;;
80123;SDS011;69433;48.642;9.142;2023-04-25T18:56:22;45.20;;;34.58;;
80123;SDS011;69433;48.642;9.142;2023-04-25T18:58:49;48.13;;;34.22;;
80123;SDS011;69433;48.642;9.142;2023-04-25T19:01:15;44.78;;;33.13;;
80123;SDS011;69433;48.642;9.142;2023-04-25T19:03:42;46.10;;;31.35;;
80123;SDS011;69433;48.642;9.142;2023-04-25T19:06:08;44.63;;;32.10;;
80123;SDS011;69433;48.642;9.142;2023-04-25T19:08:34;42.10;;;31.15;;
80123;SDS011;69433;48.642;9.142;2023-04-25T19:10:59;42.13;;;31.58;;
80123;SDS011;69433;48.642;9.142;2023-04-25T19:13:26;42.78;;;30.58;;
80123;SDS011;69433;48.642;9.142;2023-04-25T19:15:52;40.03;;;28.88;;
80123;SDS011;69433;48.642;9.142;2023-04-25T19:18:18;42.78;;;28.33;;
80123;SDS011;69433;48.642;9.142;2023-04-25T19:20:44;40.67;;;30.33;;
80123;SDS011;69433;48.642;9.142;2023-04-25T19:23:10;40.60;;;29.52;;
80123;SDS011;69433;48.642;9.142;2023-04-25T19:25:36;40.25;;;29.10;;
80123;SDS011;69433;48.642;9.142;2023-04-25T19:28:03;51.38;;;32.80;;
80123;SDS011;69433;48.642;9.142;2023-04-25T19:30:29;45.13;;;30.80;;
80123;SDS011;69433;48.642;9.142;2023-04-25T19:32:55;49.67;;;31.92;;
80123;SDS011;69433;48.642;9.142;2023-04-25T19:35:21;47.70;;;32.47;;
80123;SDS011;69433;48.642;9.142;2023-04-25T19:37:48;50.75;;;32.53;;
80123;SDS011;69433;48.642;9.142;2023-04-25T19:40:21;50.60;;;29.77;;
80123;SDS011;69433;48.642;9.142;2023-04-25T19:42:48;40.42;;;27.55;;
80123;SDS011;69433;48.642;9.142;2023-04-25T19:45:13;38.33;;;25.35;;
80123;SDS011;69433;48.642;9.142;2023-04-25T19:47:39;38.88;;;26.58;;
80123;SDS011;69433;48.642;9.142;2023-04-25T19:50:06;43.53;;;27.58;;
80123;SDS011;69433;48.642;9.142;2023-04-25T19:52:32;41.35;;;25.52;;
80123;SDS011;69433;48.642;9.142;2023-04-25T19:54:59;38.88;;;25.83;;
80123;SDS011;69433;48.642;9.142;2023-04-25T19:57:29;39.05;;;24.63;;
80123;SDS011;69433;48.642;9.142;2023-04-25T20:00:00;37.60;;;25.30;;
80123;SDS011;69433;48.642;9.142;2023-04-25T20:02:26;38.03;;;25.00;;
80123;SDS011;69433;48.642;9.142;2023-04-25T20:04:52;38.75;;;24.08;;
80123;SDS011;69433;48.642;9.142;2023-04-25T20:07:20;41.30;;;26.05;;
80123;SDS011;69433;48.642;9.142;2023-04-25T20:09:46;37.20;;;25.33;;
80123;SDS011;69433;48.642;9.142;2023-04-25T20:12:12;37.88;;;25.73;;
80123;SDS011;69433;48.642;9.142;2023-04-25T20:14:38;39.53;;;25.40;;
80123;SDS011;69433;48.642;9.142;2023-04-25T20:17:03;36.40;;;24.58;;
80123;SDS011;69433;48.642;9.142;2023-04-25T20:19:29;36.97;;;24.25;;
80123;SDS011;69433;48.642;9.142;2023-04-25T20:21:56;33.85;;;23.27;;
80123;SDS011;69433;48.642;9.142;2023-04-25T20:24:22;34.13;;;22.98;;
80123;SDS011;69433;48.642;9.142;2023-04-25T20:26:48;34.20;;;23.30;;
80123;SDS011;69433;48.642;9.142;2023-04-25T20:29:13;41.55;;;23.45;;
80123;SDS011;69433;48.642;9.142;2023-04-25T20:31:39;32.47;;;22.02;;
80123;SDS011;69433;48.642;9.142;2023-04-25T20:34:05;35.17;;;22.67;;
80123;SDS011;69433;48.642;9.142;2023-04-25T20:36:30;30.30;;;21.95;;
80123;SDS011;69433;48.642;9.142;2023-04-25T20:38:57;35.03;;;22.65;;
80123;SDS011;69433;48.642;9.142;2023-04-25T20:41:22;30.63;;;21.50;;
80123;SDS011;69433;48.642;9.142;2023-04-25T20:43:47;28.67;;;20.65;;
80123;SDS011;69433;48.642;9.142;2023-04-25T20:46:14;30.30;;;20.67;;
80123;SDS011;69433;48.642;9.142;2023-04-25T20:48:40;30.75;;;20.95;;
80123;SDS011;69433;48.642;9.142;2023-04-25T20:51:05;31.38;;;21.60;;
80123;SDS011;69433;48.642;9.142;2023-04-25T20:53:31;29.10;;;20.30;;
80123;SDS011;69433;48.642;9.142;2023-04-25T20:55:57;28.23;;;20.50;;
80123;SDS011;69433;48.642;9.142;2023-04-25T20:58:23;28.67;;;20.88;;
80123;SDS011;69433;48.642;9.142;2023-04-25T21:00:50;29.88;;;19.95;;
80123;SDS011;69433;48.642;9.142;2023-04-25T21:03:15;28.13;;;20.48;;
80123;SDS011;69433;48.642;9.142;2023-04-25T21:05:47;29.80;;;20.23;;
80123;SDS011;69433;48.642;9.142;2023-04-25T21:08:12;28.27;;;19.40;;
80123;SDS011;69433;48.642;9.142;2023-04-25T21:10:37;27.35;;;18.98;;
80123;SDS011;69433;48.642;9.142;2023-04-25T21:13:03;25.23;;;18.75;;
80123;SDS011;69433;48.642;9.142;2023-04-25T21:15:29;26.90;;;19.27;;
80123;SDS011;69433;48.642;9.142;2023-04-25T21:17:54;25.45;;;18.55;;
80123;SDS011;69433;48.642;9.142;2023-04-25T21:20:20;26.85;;;17.98;;
80123;SDS011;69433;48.642;9.142;2023-04-25T21:22:47;24.33;;;18.40;;
80123;SDS011;69433;48.642;9.142;2023-04-25T21:25:13;25.58;;;17.58;;
80123;SDS011;69433;48.642;9.142;2023-04-25T21:30:10;24.55;;;17.48;;
80123;SDS011;69433;48.642;9.142;2023-04-25T21:32:36;26.45;;;17.02;;
80123;SDS011;69433;48.642;9.142;2023-04-25T21:35:04;24.65;;;16.67;;
80123;SDS011;69433;48.642;9.142;2023-04-25T21:37:29;26.35;;;17.65;;
80123;SDS011;69433;48.642;9.142;2023-04-25T21:39:54;26.80;;;18.08;;
80123;SDS011;69433;48.642;9.142;2023-04-25T21:42:20;24.27;;;16.92;;
80123;SDS011;69433;48.642;9.142;2023-04-25T21:44:45;24.10;;;16.55;;
80123;SDS011;69433;48.642;9.142;2023-04-25T21:47:10;23.27;;;17.33;;
80123;SDS011;69433;48.642;9.142;2023-04-25T21:49:36;25.08;;;16.95;;
80123;SDS011;69433;48.642;9.142;2023-04-25T21:52:01;26.48;;;17.42;;
80123;SDS011;69433;48.642;9.142;2023-04-25T21:54:28;23.85;;;16.55;;
80123;SDS011;69433;48.642;9.142;2023-04-25T21:56:53;21.13;;;15.95;;
80123;SDS011;69433;48.642;9.142;2023-04-25T21:59:21;24.58;;;16.75;;
80123;SDS011;69433;48.642;9.142;2023-04-25T22:01:47;23.67;;;16.33;;
80123;SDS011;69433;48.642;9.142;2023-04-25T22:04:12;20.33;;;15.70;;
80123;SDS011;69433;48.642;9.142;2023-04-25T22:06:38;19.95;;;14.90;;
80123;SDS011;69433;48.642;9.142;2023-04-25T22:09:05;20.98;;;15.00;;
80123;SDS011;69433;48.642;9.142;2023-04-25T22:11:30;21.65;;;15.63;;
80123;SDS011;69433;48.642;9.142;2023-04-25T22:13:56;23.05;;;15.93;;
80123;SDS011;69433;48.642;9.142;2023-04-25T22:16:21;20.50;;;15.30;;
80123;SDS011;69433;48.642;9.142;2023-04-25T22:18:46;22.73;;;16.13;;
80123;SDS011;69433;48.642;9.142;2023-04-25T22:21:12;21.75;;;15.30;;
80123;SDS011;69433;48.642;9.142;2023-04-25T22:23:37;20.35;;;15.13;;
80123;SDS011;69433;48.642;9.142;2023-04-25T22:26:03;21.52;;;15.35;;
80123;SDS011;69433;48.642;9.142;2023-04-25T22:28:29;20.90;;;14.15;;
80123;SDS011;69433;48.642;9.142;2023-04-25T22:30:54;20.08;;;14.60;;
80123;SDS011;69433;48.642;9.142;2023-04-25T22:33:20;19.48;;;13.93;;
80123;SDS011;69433;48.642;9.142;2023-04-25T22:35:45;19.58;;;14.68;;
80123;SDS011;69433;48.642;9.142;2023-04-25T22:38:11;22.17;;;15.23;;
80123;SDS011;69433;48.642;9.142;2023-04-25T22:40:37;20.65;;;14.45;;
80123;SDS011;69433;48.642;9.142;2023-04-25T22:43:02;20.85;;;14.18;;
80123;SDS011;69433;48.642;9.142;2023-04-25T22:45:27;19.30;;;13.55;;
80123;SDS011;69433;48.642;9.142;2023-04-25T22:47:52;21.05;;;14.38;;
80123;SDS011;69433;48.642;9.142;2023-04-25T22:50:18;19.25;;;12.82;;
80123;SDS011;69433;48.642;9.142;2023-04-25T22:52:45;18.45;;;13.32;;
80123;SDS011;69433;48.642;9.142;2023-04-25T22:55:11;19.55;;;13.63;;
80123;SDS011;69433;48.642;9.142;2023-04-25T22:57:37;18.08;;;13.23;;
80123;SDS011;69433;48.642;9.142;2023-04-25T23:00:04;17.80;;;13.00;;
80123;SDS011;69433;48.642;9.142;2023-04-25T23:02:39;18.58;;;13.40;;
80123;SDS011;69433;48.642;9.142;2023-04-25T23:05:05;19.63;;;13.30;;
80123;SDS011;69433;48.642;9.142;2023-04-25T23:07:31;18.83;;;13.15;;
80123;SDS011;69433;48.642;9.142;2023-04-25T23:09:57;17.38;;;12.98;;
80123;SDS011;69433;48.642;9.142;2023-04-25T23:12:23;17.42;;;12.43;;
80123;SDS011;69433;48.642;9.142;2023-04-25T23:14:49;18.63;;;13.30;;
80123;SDS011;69433;48.642;9.142;2023-04-25T23:17:17;16.00;;;11.90;;
80123;SDS011;69433;48.642;9.142;2023-04-25T23:19:44;17.55;;;12.02;;
80123;SDS011;69433;48.642;9.142;2023-04-25T23:22:10;16.90;;;12.27;;
80123;SDS011;69433;48.642;9.142;2023-04-25T23:24:36;16.67;;;12.43;;
80123;SDS011;69433;48.642;9.142;2023-04-25T23:27:05;16.13;;;11.85;;
80123;SDS011;69433;48.642;9.142;2023-04-25T23:29:31;16.27;;;12.32;;
80123;SDS011;69433;48.642;9.142;2023-04-25T23:31:58;16.60;;;11.90;;
80123;SDS011;69433;48.642;9.142;2023-04-25T23:34:23;15.70;;;11.43;;
80123;SDS011;69433;48.642;9.142;2023-04-25T23:36:49;17.38;;;12.20;;
80123;SDS011;69433;48.642;9.142;2023-04-25T23:39:14;15.55;;;12.10;;
80123;SDS011;69433;48.642;9.142;2023-04-25T23:41:42;15.88;;;11.50;;
80123;SDS011;69433;48.642;9.142;2023-04-25T23:44:08;16.88;;;11.70;;
80123;SDS011;69433;48.642;9.142;2023-04-25T23:46:34;15.82;;;11.38;;
80123;SDS011;69433;48.642;9.142;2023-04-25T23:49:01;16.50;;;12.23;;
80123;SDS011;69433;48.642;9.142;2023-04-25T23:51:29;17.80;;;11.82;;
80123;SDS011;69433;48.642;9.142;2023-04-25T23:53:56;14.45;;;10.85;;
80123;SDS011;69433;48.642;9.142;2023-04-25T23:56:22;14.43;;;11.00;;
80123;SDS011;69433;48.642;9.142;2023-04-25T23:58:48;14.93;;;11.13;;
